createdAt,value
2023-04-19T00:02:26.850Z,6.90
2023-04-19T00:05:33.131Z,5.53
2023-04-19T00:08:38.463Z,5.82
2023-04-19T00:11:43.606Z,6.55
2023-04-19T00:14:48.866Z,5.72
2023-04-19T00:17:54.604Z,5.25
2023-04-19T00:21:00.343Z,6.57
2023-04-19T00:24:06.162Z,5.30
2023-04-19T00:27:11.448Z,5.65
2023-04-19T00:30:18.084Z,6.70
2023-04-19T00:33:23.102Z,5.88
2023-04-19T00:36:28.131Z,5.20
2023-04-19T00:39:33.472Z,6.15
2023-04-19T00:42:38.649Z,5.43
2023-04-19T00:45:43.959Z,5.85
2023-04-19T00:48:50.702Z,5.72
2023-04-19T00:51:55.851Z,6.10
2023-04-19T00:55:02.175Z,5.35
2023-04-19T00:58:08.902Z,5.45
2023-04-19T01:01:15.927Z,6.43
2023-04-19T01:04:23.474Z,6.00
2023-04-19T01:07:29.163Z,5.78
2023-04-19T01:10:34.668Z,6.43
2023-04-19T01:13:40.439Z,6.22
2023-04-19T01:16:46.620Z,6.90
2023-04-19T01:20:08.653Z,6.40
2023-04-19T01:23:14.799Z,6.70
2023-04-19T01:26:21.395Z,6.95
2023-04-19T01:29:26.911Z,6.53
2023-04-19T01:32:32.507Z,6.95
2023-04-19T01:35:38.092Z,6.72
2023-04-19T01:38:43.842Z,6.65
2023-04-19T01:41:49.259Z,5.70
2023-04-19T01:44:54.608Z,7.13
2023-04-19T01:48:01.689Z,6.20
2023-04-19T01:51:07.106Z,7.25
2023-04-19T01:54:13.962Z,7.03
2023-04-19T01:57:20.037Z,6.78
2023-04-19T02:00:26.195Z,7.53
2023-04-19T02:03:32.279Z,7.40
2023-04-19T02:06:37.937Z,7.13
2023-04-19T02:09:43.338Z,7.40
2023-04-19T02:12:48.829Z,6.75
2023-04-19T02:15:54.197Z,7.25
2023-04-19T02:19:00.025Z,7.15
2023-04-19T02:22:05.647Z,6.57
2023-04-19T02:25:11.304Z,7.22
2023-04-19T02:28:17.076Z,7.20
2023-04-19T02:31:23.110Z,6.60
2023-04-19T02:34:28.551Z,7.18
2023-04-19T02:37:34.108Z,7.70
2023-04-19T02:40:39.607Z,6.55
2023-04-19T02:43:45.130Z,5.97
2023-04-19T02:46:54.969Z,6.63
2023-04-19T02:50:00.691Z,6.35
2023-04-19T02:53:07.185Z,6.65
2023-04-19T02:56:13.203Z,5.57
2023-04-19T02:59:18.617Z,5.63
2023-04-19T03:02:25.416Z,6.15
2023-04-19T03:05:31.628Z,6.57
2023-04-19T03:08:36.991Z,5.95
2023-04-19T03:11:42.237Z,5.75
2023-04-19T03:14:48.023Z,5.88
2023-04-19T03:17:53.454Z,5.53
2023-04-19T03:21:00.777Z,5.55
2023-04-19T03:24:11.341Z,5.25
2023-04-19T03:27:20.308Z,4.65
2023-04-19T03:30:31.516Z,5.03
2023-04-19T03:33:37.848Z,5.45
2023-04-19T03:36:43.550Z,4.97
2023-04-19T03:39:49.155Z,5.47
2023-04-19T03:43:01.224Z,6.88
2023-04-19T03:46:10.255Z,6.45
2023-04-19T03:49:16.188Z,5.60
2023-04-19T03:52:26.199Z,5.88
2023-04-19T03:55:31.791Z,5.25
2023-04-19T03:58:38.145Z,6.38
2023-04-19T04:01:46.813Z,6.10
2023-04-19T04:04:55.968Z,6.38
2023-04-19T04:08:02.907Z,6.80
2023-04-19T04:11:08.469Z,8.02
2023-04-19T04:14:14.588Z,7.53
2023-04-19T04:17:20.360Z,7.13
2023-04-19T04:20:26.341Z,7.22
2023-04-19T04:23:38.768Z,7.32
2023-04-19T04:26:50.104Z,8.07
2023-04-19T04:30:02.036Z,7.50
2023-04-19T04:33:12.448Z,7.35
2023-04-19T04:36:20.859Z,7.05
2023-04-19T04:39:31.608Z,7.35
2023-04-19T04:42:37.984Z,6.50
2023-04-19T04:45:44.995Z,7.60
2023-04-19T04:48:50.564Z,7.78
2023-04-19T04:51:59.495Z,7.30
2023-04-19T04:55:09.874Z,7.10
2023-04-19T04:58:20.864Z,7.03
2023-04-19T05:01:47.683Z,10.10
2023-04-19T05:04:54.153Z,8.35
2023-04-19T05:07:59.949Z,8.27
2023-04-19T05:11:05.759Z,7.75
2023-04-19T05:17:18.949Z,7.65
2023-04-19T05:20:26.001Z,10.02
2023-04-19T05:23:39.948Z,8.70
2023-04-19T05:26:46.959Z,8.45
2023-04-19T05:29:53.914Z,9.50
2023-04-19T05:33:01.253Z,10.27
2023-04-19T05:36:07.160Z,11.82
2023-04-19T05:39:13.936Z,11.45
2023-04-19T05:42:19.155Z,8.52
2023-04-19T05:45:26.010Z,8.40
2023-04-19T05:48:31.723Z,8.80
2023-04-19T05:51:50.370Z,8.93
2023-04-19T05:55:22.068Z,7.50
2023-04-19T05:58:27.692Z,8.52
2023-04-19T06:01:33.199Z,8.68
2023-04-19T06:04:38.594Z,11.63
2023-04-19T06:07:54.601Z,9.70
2023-04-19T06:11:15.744Z,9.07
2023-04-19T06:14:29.671Z,8.60
2023-04-19T06:17:35.790Z,9.73
2023-04-19T06:20:41.401Z,8.48
2023-04-19T06:23:47.326Z,9.15
2023-04-19T06:26:52.886Z,8.80
2023-04-19T06:30:01.189Z,8.60
2023-04-19T06:33:07.195Z,8.85
2023-04-19T06:36:13.384Z,9.35
2023-04-19T06:39:19.490Z,7.30
2023-04-19T06:42:26.279Z,6.93
2023-04-19T06:45:32.408Z,6.53
2023-04-19T06:48:38.934Z,6.18
2023-04-19T06:51:44.125Z,7.10
2023-04-19T06:54:51.044Z,5.88
2023-04-19T06:57:56.411Z,5.45
2023-04-19T07:01:02.474Z,4.63
2023-04-19T07:04:09.167Z,5.15
2023-04-19T07:07:15.110Z,3.83
2023-04-19T07:10:20.669Z,4.55
2023-04-19T07:13:26.748Z,4.50
2023-04-19T07:16:33.574Z,3.83
2023-04-19T07:19:38.907Z,3.90
2023-04-19T07:22:44.239Z,4.03
2023-04-19T07:25:49.518Z,4.40
2023-04-19T07:28:55.026Z,4.55
2023-04-19T07:32:02.172Z,5.00
2023-04-19T07:35:08.142Z,4.43
2023-04-19T07:38:14.182Z,3.97
2023-04-19T07:41:19.977Z,3.80
2023-04-19T07:44:25.810Z,3.67
2023-04-19T07:47:31.576Z,3.67
2023-04-19T07:50:37.781Z,4.03
2023-04-19T07:53:44.005Z,3.92
2023-04-19T07:56:49.702Z,3.95
2023-04-19T07:59:58.357Z,3.83
2023-04-19T08:03:04.652Z,4.03
2023-04-19T08:06:10.346Z,4.22
2023-04-19T08:09:16.305Z,3.70
2023-04-19T08:18:43.158Z,4.57
2023-04-19T08:21:48.799Z,4.50
2023-04-19T08:24:54.143Z,4.78
2023-04-19T08:27:59.622Z,4.68
2023-04-19T08:31:08.241Z,4.32
2023-04-19T08:34:13.923Z,4.72
2023-04-19T08:37:19.209Z,5.38
2023-04-19T08:40:25.149Z,4.53
2023-04-19T08:43:33.812Z,4.93
2023-04-19T08:46:40.429Z,4.85
2023-04-19T08:53:00.651Z,4.63
2023-04-19T08:56:24.032Z,6.05
2023-04-19T08:59:34.978Z,4.88
2023-04-19T09:02:48.430Z,5.18
2023-04-19T09:05:55.029Z,4.85
2023-04-19T09:09:45.690Z,4.32
2023-04-19T09:13:06.517Z,4.53
2023-04-19T09:16:25.493Z,5.35
2023-04-19T09:19:47.475Z,5.10
2023-04-19T09:23:07.438Z,5.05
2023-04-19T09:26:23.522Z,5.22
2023-04-19T09:29:29.235Z,4.90
2023-04-19T09:32:49.067Z,5.40
2023-04-19T09:35:55.228Z,5.60
2023-04-19T09:39:02.805Z,5.28
2023-04-19T09:42:08.028Z,4.43
2023-04-19T09:45:29.013Z,4.32
2023-04-19T09:48:37.601Z,5.13
2023-04-19T09:51:44.569Z,5.28
2023-04-19T09:54:54.035Z,5.65
2023-04-19T09:57:59.669Z,4.38
2023-04-19T10:04:33.584Z,4.68
2023-04-19T10:07:44.613Z,5.55
2023-04-19T10:10:55.218Z,4.93
2023-04-19T10:14:02.195Z,4.00
2023-04-19T10:17:07.891Z,4.95
2023-04-19T10:20:20.985Z,3.78
2023-04-19T10:23:26.801Z,4.05
2023-04-19T10:27:13.507Z,3.45
2023-04-19T10:30:29.036Z,3.95
2023-04-19T10:33:38.219Z,3.35
2023-04-19T10:36:44.778Z,3.22
2023-04-19T10:39:50.452Z,3.17
2023-04-19T10:43:10.910Z,3.78
2023-04-19T10:46:22.233Z,3.35
2023-04-19T10:49:30.276Z,3.60
2023-04-19T10:52:35.706Z,3.13
2023-04-19T10:55:51.415Z,2.75
2023-04-19T10:59:08.607Z,2.75
2023-04-19T11:02:23.201Z,2.88
2023-04-19T11:05:28.932Z,2.42
2023-04-19T11:08:35.276Z,3.60
2023-04-19T11:11:40.724Z,2.38
2023-04-19T11:15:05.890Z,2.55
2023-04-19T11:18:19.494Z,2.15
2023-04-19T11:21:25.134Z,2.35
2023-04-19T11:24:30.703Z,1.50
2023-04-19T11:27:36.457Z,2.22
2023-04-19T11:30:42.001Z,1.80
2023-04-19T11:33:47.280Z,1.85
2023-04-19T11:36:53.375Z,1.85
2023-04-19T11:39:58.523Z,1.75
2023-04-19T11:43:05.290Z,2.10
2023-04-19T11:46:12.386Z,1.60
2023-04-19T11:49:34.191Z,1.98
2023-04-19T11:52:39.450Z,2.53
2023-04-19T11:56:06.133Z,2.40
2023-04-19T11:59:11.258Z,2.13
2023-04-19T12:02:19.532Z,2.10
2023-04-19T12:05:25.136Z,1.90
2023-04-19T12:08:36.633Z,1.85
2023-04-19T12:11:50.372Z,1.95
2023-04-19T12:14:56.023Z,2.00
2023-04-19T12:18:02.964Z,2.10
2023-04-19T12:21:08.178Z,2.05
2023-04-19T12:24:16.494Z,2.35
2023-04-19T12:27:21.860Z,2.33
2023-04-19T12:30:27.435Z,2.63
2023-04-19T12:33:32.982Z,2.92
2023-04-19T12:36:39.216Z,2.72
2023-04-19T12:39:44.769Z,2.00
2023-04-19T12:42:50.952Z,2.45
2023-04-19T12:45:56.533Z,2.22
2023-04-19T12:49:01.630Z,2.50
2023-04-19T12:52:07.277Z,2.00
2023-04-19T12:55:12.851Z,1.95
2023-04-19T12:58:18.938Z,1.83
2023-04-19T13:01:24.434Z,1.95
2023-04-19T13:04:30.378Z,3.17
2023-04-19T13:07:35.790Z,2.05
2023-04-19T13:10:41.298Z,1.95
2023-04-19T13:13:46.742Z,2.15
2023-04-19T13:16:52.126Z,2.53
2023-04-19T13:19:57.834Z,2.00
2023-04-19T13:23:03.069Z,2.70
2023-04-19T13:26:08.611Z,2.63
2023-04-19T13:29:14.137Z,2.58
2023-04-19T13:32:19.913Z,2.90
2023-04-19T13:35:25.157Z,2.20
2023-04-19T13:38:31.100Z,2.17
2023-04-19T13:41:36.672Z,2.00
2023-04-19T13:44:42.009Z,2.00
2023-04-19T13:47:47.382Z,2.58
2023-04-19T13:50:55.170Z,2.58
2023-04-19T13:54:00.932Z,2.35
2023-04-19T13:57:06.808Z,2.55
2023-04-19T14:00:12.883Z,2.38
2023-04-19T14:03:18.963Z,2.50
2023-04-19T14:06:24.559Z,2.28
2023-04-19T14:09:29.999Z,2.05
2023-04-19T14:12:35.532Z,2.17
2023-04-19T14:15:40.929Z,2.90
2023-04-19T14:18:46.644Z,1.70
2023-04-19T14:21:52.381Z,2.40
2023-04-19T14:24:58.190Z,2.58
2023-04-19T14:28:04.393Z,2.55
2023-04-19T14:31:09.557Z,2.20
2023-04-19T14:34:14.980Z,2.10
2023-04-19T14:37:22.540Z,2.40
2023-04-19T14:40:28.028Z,2.65
2023-04-19T14:43:33.405Z,2.30
2023-04-19T14:46:38.938Z,2.10
2023-04-19T14:49:44.143Z,2.08
2023-04-19T14:52:50.010Z,2.22
2023-04-19T14:55:55.652Z,2.00
2023-04-19T14:59:01.801Z,3.50
2023-04-19T15:02:07.599Z,2.10
2023-04-19T15:05:13.180Z,2.50
2023-04-19T15:11:29.715Z,2.30
2023-04-19T15:14:35.453Z,3.08
2023-04-19T15:17:41.511Z,3.08
2023-04-19T15:20:46.699Z,3.30
2023-04-19T15:23:52.078Z,3.20
2023-04-19T15:26:58.996Z,3.72
2023-04-19T15:30:06.159Z,3.97
2023-04-19T15:33:11.695Z,4.03
2023-04-19T15:36:17.253Z,4.40
2023-04-19T15:39:22.485Z,4.57
2023-04-19T15:42:27.909Z,3.08
2023-04-19T15:45:33.325Z,3.10
2023-04-19T15:48:39.578Z,3.17
2023-04-19T15:51:45.147Z,3.08
2023-04-19T15:54:51.431Z,3.10
2023-04-19T15:57:57.029Z,4.28
2023-04-19T16:01:03.112Z,4.90
2023-04-19T16:04:08.880Z,4.13
2023-04-19T16:07:14.714Z,4.60
2023-04-19T16:10:20.100Z,4.28
2023-04-19T16:13:25.524Z,5.25
2023-04-19T16:16:33.943Z,5.35
2023-04-19T16:19:38.746Z,6.03
2023-04-19T16:22:43.946Z,4.85
2023-04-19T16:25:49.629Z,4.75
2023-04-19T16:28:55.267Z,4.80
2023-04-19T16:32:01.378Z,5.50
2023-04-19T16:35:08.356Z,4.15
2023-04-19T16:38:13.760Z,4.63
2023-04-19T16:41:19.310Z,4.43
2023-04-19T16:44:24.948Z,4.63
2023-04-19T16:47:33.072Z,4.20
2023-04-19T16:50:38.807Z,4.32
2023-04-19T16:53:45.852Z,4.72
2023-04-19T16:56:51.285Z,4.35
2023-04-19T16:59:56.868Z,4.78
2023-04-19T17:03:02.730Z,4.13
2023-04-19T17:06:08.427Z,4.78
2023-04-19T17:09:14.325Z,4.30
2023-04-19T17:12:19.872Z,4.22
2023-04-19T17:15:26.313Z,4.38
2023-04-19T17:18:31.698Z,3.72
2023-04-19T17:21:37.042Z,5.00
2023-04-19T17:24:42.911Z,4.88
2023-04-19T17:27:48.885Z,4.60
2023-04-19T17:30:54.351Z,4.38
2023-04-19T17:33:59.786Z,3.47
2023-04-19T17:37:05.447Z,3.50
2023-04-19T17:40:11.547Z,3.40
2023-04-19T17:43:17.441Z,3.03
2023-04-19T17:46:22.996Z,2.88
2023-04-19T17:49:28.418Z,3.63
2023-04-19T17:52:34.583Z,4.03
2023-04-19T17:55:39.962Z,4.43
2023-04-19T17:58:46.071Z,5.40
2023-04-19T18:01:51.732Z,5.15
2023-04-19T18:04:57.397Z,5.57
2023-04-19T18:08:03.012Z,5.95
2023-04-19T18:11:10.762Z,5.78
2023-04-19T18:14:16.662Z,5.88
2023-04-19T18:17:22.539Z,4.93
2023-04-19T18:20:28.005Z,5.28
2023-04-19T18:23:33.779Z,4.50
2023-04-19T18:26:43.166Z,3.75
2023-04-19T18:29:52.651Z,3.90
2023-04-19T18:32:59.281Z,3.80
2023-04-19T18:36:06.521Z,4.35
2023-04-19T18:39:14.040Z,4.93
2023-04-19T18:42:21.471Z,5.47
2023-04-19T18:45:33.169Z,5.10
2023-04-19T18:48:41.546Z,4.63
2023-04-19T18:51:51.698Z,3.80
2023-04-19T18:54:58.757Z,4.38
2023-04-19T18:58:09.637Z,3.80
2023-04-19T19:01:23.544Z,3.35
2023-04-19T19:10:19.399Z,5.00
2023-04-19T19:13:55.130Z,2.85
2023-04-19T19:17:04.126Z,3.05
2023-04-19T19:20:11.876Z,3.00
2023-04-19T19:23:20.421Z,2.75
2023-04-19T19:26:37.788Z,3.22
2023-04-19T19:30:00.653Z,3.63
2023-04-19T19:33:28.737Z,3.70
2023-04-19T19:36:44.221Z,4.03
2023-04-19T19:39:56.264Z,3.88
2023-04-19T19:43:06.189Z,4.32
2023-04-19T19:46:22.858Z,3.67
2023-04-19T19:49:54.251Z,4.40
2023-04-19T19:53:16.456Z,4.57
2023-04-19T19:56:28.144Z,4.93
2023-04-19T19:59:38.569Z,4.90
2023-04-19T20:02:56.103Z,6.07
2023-04-19T20:09:28.938Z,5.25
2023-04-19T20:12:41.759Z,6.65
2023-04-19T20:15:59.070Z,5.43
2023-04-19T20:19:13.365Z,5.38
2023-04-19T20:22:27.582Z,5.88
2023-04-19T20:25:40.983Z,4.93
2023-04-19T20:28:51.677Z,5.78
2023-04-19T20:31:59.723Z,5.78
2023-04-19T20:35:11.871Z,5.35
2023-04-19T20:38:19.874Z,5.80
2023-04-19T20:41:27.152Z,6.20
2023-04-19T20:44:33.075Z,5.75
2023-04-19T20:47:39.141Z,6.78
2023-04-19T20:50:48.119Z,5.75
2023-04-19T20:53:57.020Z,6.72
2023-04-19T20:57:06.341Z,6.22
2023-04-19T21:00:18.856Z,6.18
2023-04-19T21:03:29.070Z,6.68
2023-04-19T21:06:38.375Z,5.82
2023-04-19T21:09:51.280Z,5.40
2023-04-19T21:12:58.823Z,5.43
2023-04-19T21:16:08.020Z,4.47
2023-04-19T21:19:17.460Z,4.57
2023-04-19T21:22:23.594Z,5.88
2023-04-19T21:25:29.342Z,6.00
2023-04-19T21:28:35.288Z,5.85
2023-04-19T21:31:41.891Z,5.47
2023-04-19T21:34:48.376Z,5.85
2023-04-19T21:37:55.111Z,5.63
2023-04-19T21:41:00.663Z,6.20
2023-04-19T21:44:07.489Z,6.80
2023-04-19T21:47:13.488Z,6.70
2023-04-19T21:50:18.867Z,6.13
2023-04-19T21:53:24.452Z,5.35
2023-04-19T21:56:30.264Z,4.80
2023-04-19T21:59:37.913Z,4.03
2023-04-19T22:02:43.673Z,3.85
2023-04-19T22:05:49.341Z,3.92
2023-04-19T22:08:55.325Z,3.67
2023-04-19T22:12:01.833Z,3.20
2023-04-19T22:15:07.631Z,3.22
2023-04-19T22:18:13.054Z,3.00
2023-04-19T22:21:18.757Z,3.10
2023-04-19T22:24:24.518Z,2.42
2023-04-19T22:27:30.634Z,2.50
2023-04-19T22:30:36.438Z,2.40
2023-04-19T22:33:42.431Z,2.90
2023-04-19T22:36:47.861Z,2.70
2023-04-19T22:39:53.520Z,3.80
2023-04-19T22:42:58.937Z,3.83
2023-04-19T22:46:04.607Z,3.40
2023-04-19T22:49:10.515Z,3.35
2023-04-19T22:52:16.425Z,3.97
2023-04-19T22:55:22.104Z,3.53
2023-04-19T22:58:27.680Z,3.30
2023-04-19T23:01:33.697Z,2.97
2023-04-19T23:04:39.809Z,3.70
2023-04-19T23:07:45.476Z,3.30
2023-04-19T23:10:52.372Z,3.25
2023-04-19T23:13:57.886Z,2.88
2023-04-19T23:17:03.472Z,3.50
2023-04-19T23:20:12.973Z,3.35
2023-04-19T23:23:20.234Z,3.33
2023-04-19T23:26:25.630Z,3.92
2023-04-19T23:29:31.645Z,4.07
2023-04-19T23:32:36.972Z,4.32
2023-04-19T23:35:42.950Z,4.78
2023-04-19T23:38:48.750Z,5.50
2023-04-19T23:41:54.287Z,5.13
2023-04-19T23:45:00.209Z,4.95
2023-04-19T23:48:06.383Z,4.85
2023-04-19T23:51:12.781Z,6.20
2023-04-19T23:54:22.929Z,5.82
2023-04-19T23:57:28.382Z,6.55
